ROMMA est une association bénévole à but non lucratif. Votre soutien est indispensable : ADHERER à ROMMA ou FAIRE un DON

Granges-lès-Beaumont - (26, Drôme)

Drôme des Collines (155 m)   Longitude: 04°58'E   Latitude: 45°03'N Station partenaire n°123
 

Détail journalier du     <<     >>

Température Precipitation Humidité Pression Vent Dir Rafale Dir. rafale Ensol.
Heure (°C) (mm) (%) (hPa) (km/h) (km/h) (min)
01:00 13.907610255NNE16ENE0
02:00 12.708110246NNO11NNO0
03:00 12.108110245NNO13N0
04:00 12.108410247NNO11NNO0
05:00 11.608410242NNO8NNO0
06:00 11.2085102400---0
07:00 11.8086102408NNO0
08:00 13.808510241---10NNO0
09:00 16.607510248N18NNE0
10:00 19.8064102411NNO21NNO10
11:00 22.3053102411N23NNO60
12:00 23.9047102412N24NNE60
13:00 25.3040102310N23N60
14:00 26.5042102311NNE31NE60
15:00 26.1040102310N23NE60
16:00 28.603710229N23N60
17:00 27.7035102211N23NNE60
18:00 27.803510219NNO21N60
19:00 26.403710219NNE19NO60
20:00 24.604210219N19NNE20
21:00 22.904910216NNO13NNO0
22:00 19.606010218NNO13NO0
23:00 17.606810219NNO13NNO0
minuit 16.507210213NNO10NNO0

Graphique du 31-05-2019

 

Serveur OMMA